Time;durP1;ratioP1;P1;durP2;ratioP2;P2;SDS_P1;SDS_P2;PMS_P1;PMS_P2;Temp;Humidity;BMP_temperature;BMP_pressure;BME280_temperature;BME280_humidity;BME280_pressure;Samples;Min_cycle;Max_cycle;Signal;HPM_P1;HPM_P2
2022/05/13 00:01:56;;;;;;;14.77;3.40;;;13.70;99.90;;;;;;5013755;28;20026;-74
2022/05/13 00:04:22;;;;;;;13.15;3.03;;;13.60;99.90;;;;;;5013638;28;20034;-74
2022/05/13 00:06:47;;;;;;;14.63;2.83;;;13.60;99.90;;;;;;5013234;28;20065;-74
2022/05/13 00:09:13;;;;;;;13.85;3.25;;;13.70;99.90;;;;;;5013722;28;20033;-74
2022/05/13 00:11:39;;;;;;;18.88;4.25;;;13.60;99.90;;;;;;5013672;28;20368;-73
2022/05/13 00:14:05;;;;;;;26.38;5.32;;;13.60;99.90;;;;;;5013710;28;20097;-72
2022/05/13 00:16:34;;;;;;;18.23;4.47;;;13.50;99.90;;;;;;5013292;28;20028;-72
2022/05/13 00:19:01;;;;;;;15.13;3.53;;;13.50;99.90;;;;;;5013615;28;20075;-73
2022/05/13 00:21:27;;;;;;;19.58;3.67;;;13.50;99.90;;;;;;5013775;28;20029;-73
2022/05/13 00:23:52;;;;;;;12.85;3.67;;;13.50;99.90;;;;;;5014033;28;20018;-73
2022/05/13 00:26:18;;;;;;;13.23;3.00;;;13.50;99.90;;;;;;5014706;28;20037;-74
2022/05/13 00:28:44;;;;;;;19.88;3.05;;;13.50;99.90;;;;;;5013718;28;20022;-74
2022/05/13 00:31:12;;;;;;;14.32;3.00;;;13.40;99.90;;;;;;5013323;28;20029;-73
2022/05/13 00:33:38;;;;;;;20.23;4.15;;;13.30;99.90;;;;;;5013373;28;20029;-73
2022/05/13 00:36:04;;;;;;;14.40;3.20;;;13.10;99.90;;;;;;5012917;28;20026;-75
2022/05/13 00:38:30;;;;;;;14.95;3.08;;;13.10;99.90;;;;;;5013275;28;20478;-73
2022/05/13 00:40:56;;;;;;;13.85;3.00;;;13.20;99.90;;;;;;5013150;28;20080;-74
2022/05/13 00:43:49;;;;;;;20.88;3.20;;;13.20;99.90;;;;;;5013043;28;20522;-74
2022/05/13 00:46:15;;;;;;;11.30;2.88;;;13.10;99.90;;;;;;5012797;28;20026;-74
2022/05/13 00:48:41;;;;;;;18.73;3.13;;;13.20;99.90;;;;;;5012922;28;20372;-74
2022/05/13 00:51:09;;;;;;;13.27;3.30;;;13.20;99.90;;;;;;5011800;28;20032;-74
2022/05/13 00:53:35;;;;;;;16.17;2.97;;;13.20;99.90;;;;;;5012984;28;20026;-74
2022/05/13 00:56:01;;;;;;;12.40;3.13;;;13.10;99.90;;;;;;5012553;28;20575;-74
2022/05/13 00:58:28;;;;;;;17.10;3.42;;;13.10;99.90;;;;;;5012928;28;20026;-74
2022/05/13 01:00:53;;;;;;;16.25;3.83;;;13.20;99.90;;;;;;5013027;28;20423;-74
2022/05/13 01:03:20;;;;;;;15.40;3.17;;;13.20;99.90;;;;;;5013144;28;20026;-74
2022/05/13 01:05:53;;;;;;;21.33;3.30;;;13.00;99.90;;;;;;5012401;28;20032;-74
2022/05/13 01:08:19;;;;;;;18.92;3.60;;;13.00;99.90;;;;;;5012859;28;20386;-74
2022/05/13 01:10:46;;;;;;;17.55;3.60;;;13.00;99.90;;;;;;5012888;28;20029;-74
2022/05/13 01:13:16;;;;;;;17.60;3.60;;;12.90;99.90;;;;;;5012765;28;20033;-74
2022/05/13 01:15:43;;;;;;;18.08;4.07;;;12.90;99.90;;;;;;5012605;28;20108;-74
2022/05/13 01:18:10;;;;;;;24.52;3.88;;;12.90;99.90;;;;;;5012513;28;20041;-74
2022/05/13 01:20:46;;;;;;;15.88;3.67;;;12.90;99.90;;;;;;5012992;28;20029;-74
2022/05/13 01:23:17;;;;;;;14.20;3.28;;;12.90;99.90;;;;;;5027675;28;20030;-74
2022/05/13 01:25:45;;;;;;;14.32;3.30;;;12.90;99.90;;;;;;5012273;28;20036;-74
2022/05/13 01:28:16;;;;;;;17.35;3.78;;;12.90;99.90;;;;;;5012315;28;20430;-74
2022/05/13 01:30:54;;;;;;;19.55;4.32;;;12.90;99.90;;;;;;5011937;28;20018;-74
2022/05/13 01:33:20;;;;;;;13.13;3.47;;;13.00;99.90;;;;;;5012570;28;20491;-74
2022/05/13 01:35:49;;;;;;;14.80;3.70;;;12.90;99.90;;;;;;5012090;28;20080;-73
2022/05/13 01:38:16;;;;;;;11.02;2.90;;;12.90;99.90;;;;;;5012485;28;20030;-74
2022/05/13 01:40:42;;;;;;;17.75;3.55;;;12.90;99.90;;;;;;5012295;28;20034;-73
2022/05/13 01:43:08;;;;;;;13.15;3.28;;;12.80;99.90;;;;;;5012255;28;20040;-74
2022/05/13 01:45:35;;;;;;;17.90;3.95;;;12.80;99.90;;;;;;5011975;28;20506;-74
2022/05/13 01:48:01;;;;;;;14.77;3.53;;;12.70;99.90;;;;;;5012181;28;20109;-74
2022/05/13 01:50:27;;;;;;;17.38;3.95;;;12.70;99.90;;;;;;5012241;28;20026;-74
2022/05/13 01:52:54;;;;;;;16.70;4.38;;;12.70;99.90;;;;;;5012597;28;20034;-74
2022/05/13 01:55:20;;;;;;;20.52;4.35;;;12.60;99.90;;;;;;5012263;28;20048;-74
2022/05/13 01:57:46;;;;;;;15.52;3.83;;;12.60;99.90;;;;;;5013510;28;20474;-74
2022/05/13 02:00:12;;;;;;;17.02;4.28;;;12.60;99.90;;;;;;5012293;28;20026;-74
2022/05/13 02:05:24;;;;;;;27.87;3.87;;;12.50;99.90;;;;;;5012033;28;20037;-74
2022/05/13 02:07:50;;;;;;;14.32;3.13;;;12.60;99.90;;;;;;5012184;28;20296;-74
2022/05/13 02:10:16;;;;;;;18.40;3.33;;;12.50;99.90;;;;;;5027829;28;20056;-74
2022/05/13 02:12:42;;;;;;;17.13;3.88;;;12.50;99.90;;;;;;5016372;28;20057;-74
2022/05/13 02:15:08;;;;;;;17.92;3.90;;;12.60;99.90;;;;;;5018966;28;20026;-75
2022/05/13 02:17:34;;;;;;;17.98;3.63;;;12.50;99.90;;;;;;5017874;28;20026;-74
2022/05/13 02:19:59;;;;;;;17.77;3.38;;;12.40;99.90;;;;;;5015967;28;20026;-73
2022/05/13 02:22:25;;;;;;;20.50;4.05;;;12.50;99.90;;;;;;5015864;28;20022;-73
2022/05/13 02:24:51;;;;;;;16.67;3.45;;;12.40;99.90;;;;;;5015816;28;20030;-73
2022/05/13 02:27:16;;;;;;;18.95;3.67;;;12.40;99.90;;;;;;5015316;28;20030;-73
2022/05/13 02:29:42;;;;;;;22.85;4.53;;;12.40;99.90;;;;;;5015547;28;20476;-73
2022/05/13 02:32:08;;;;;;;14.65;3.15;;;12.40;99.90;;;;;;5015570;28;20030;-74
2022/05/13 02:34:36;;;;;;;19.77;3.83;;;12.40;99.90;;;;;;5016284;28;20018;-74
2022/05/13 02:37:03;;;;;;;20.08;4.15;;;12.40;99.90;;;;;;5015548;28;20049;-73
2022/05/13 02:39:28;;;;;;;21.92;3.97;;;12.40;99.90;;;;;;5015454;28;20032;-74
2022/05/13 02:41:54;;;;;;;19.75;4.80;;;12.30;99.90;;;;;;5015499;28;20030;-74
2022/05/13 02:44:19;;;;;;;16.40;4.28;;;12.30;99.90;;;;;;5015903;28;20038;-74
2022/05/13 02:46:45;;;;;;;23.88;4.35;;;12.30;99.90;;;;;;5013630;28;20073;-74
2022/05/13 02:49:10;;;;;;;20.63;4.38;;;12.40;99.90;;;;;;5015223;28;20018;-72
2022/05/13 02:51:36;;;;;;;16.67;3.85;;;12.40;99.90;;;;;;5015316;28;20022;-72
2022/05/13 02:54:01;;;;;;;17.58;4.43;;;12.40;99.90;;;;;;5013685;28;20022;-72
2022/05/13 02:56:26;;;;;;;14.05;4.03;;;12.30;99.90;;;;;;5014620;28;20040;-72
2022/05/13 02:58:52;;;;;;;17.40;4.15;;;12.30;99.90;;;;;;5015152;28;20447;-72
2022/05/13 03:01:19;;;;;;;12.73;4.00;;;12.40;99.90;;;;;;5014805;28;20030;-73
2022/05/13 03:03:47;;;;;;;15.05;3.63;;;12.40;99.90;;;;;;5015777;28;20486;-73
2022/05/13 03:06:13;;;;;;;17.85;4.05;;;12.40;99.90;;;;;;5015916;28;20084;-73
2022/05/13 03:08:39;;;;;;;27.10;4.78;;;12.40;99.90;;;;;;5015146;28;20030;-72
2022/05/13 03:11:07;;;;;;;22.55;4.30;;;12.40;99.90;;;;;;5015191;28;20025;-72
2022/05/13 03:13:33;;;;;;;24.23;4.38;;;12.30;99.90;;;;;;5015065;28;20032;-72
2022/05/13 03:16:21;;;;;;;19.33;4.38;;;12.40;99.90;;;;;;5015106;28;20105;-71
2022/05/13 03:18:48;;;;;;;20.95;4.47;;;12.40;99.90;;;;;;5016676;28;20029;-72
2022/05/13 03:21:14;;;;;;;20.15;4.43;;;12.40;99.90;;;;;;5015041;28;20078;-73
2022/05/13 03:23:42;;;;;;;23.40;4.90;;;12.50;99.90;;;;;;5015926;28;20065;-73
2022/05/13 03:26:08;;;;;;;18.17;4.90;;;12.40;99.90;;;;;;5015429;28;20067;-72
2022/05/13 03:28:34;;;;;;;27.70;4.68;;;12.40;99.90;;;;;;5015748;28;20029;-73
2022/05/13 03:31:00;;;;;;;25.88;5.07;;;12.50;99.90;;;;;;5014915;28;20025;-73
2022/05/13 03:33:25;;;;;;;23.05;5.25;;;12.40;99.90;;;;;;5015946;28;20026;-73
2022/05/13 03:35:51;;;;;;;21.35;4.90;;;12.40;99.90;;;;;;5018113;28;20037;-73
2022/05/13 03:38:16;;;;;;;19.55;4.75;;;12.40;99.90;;;;;;5016653;28;20478;-72
2022/05/13 03:40:42;;;;;;;21.08;5.13;;;12.40;99.90;;;;;;5015675;28;20114;-73
2022/05/13 03:43:07;;;;;;;14.35;4.55;;;12.40;99.90;;;;;;5015988;28;20026;-73
2022/05/13 03:45:34;;;;;;;21.23;4.70;;;12.40;99.90;;;;;;5015392;28;20030;-73
2022/05/13 03:47:59;;;;;;;18.33;4.70;;;12.50;99.90;;;;;;5014493;28;20022;-71
2022/05/13 03:50:27;;;;;;;16.88;5.13;;;12.60;99.90;;;;;;5014669;28;20077;-73
2022/05/13 03:52:52;;;;;;;24.08;4.65;;;12.70;99.90;;;;;;5015147;28;20072;-73
2022/05/13 03:55:18;;;;;;;17.85;5.07;;;12.70;99.90;;;;;;5016712;28;20034;-73
2022/05/13 03:57:44;;;;;;;19.48;5.03;;;12.60;99.90;;;;;;5015581;28;20045;-74
2022/05/13 04:00:10;;;;;;;14.65;4.88;;;12.60;99.90;;;;;;5014155;28;20470;-72
2022/05/13 04:02:37;;;;;;;18.67;5.50;;;12.60;99.90;;;;;;5013861;28;20026;-73
2022/05/13 04:10:32;;;;;;;24.63;5.50;;;12.60;99.90;;;;;;5014299;28;20029;-73
2022/05/13 04:18:25;;;;;;;14.98;4.70;;;12.60;99.90;;;;;;5013878;28;20033;-73
2022/05/13 04:20:51;;;;;;;17.50;4.95;;;12.60;99.90;;;;;;5013797;28;20026;-73
2022/05/13 04:23:17;;;;;;;16.38;5.07;;;12.60;99.90;;;;;;5013739;28;20388;-72
2022/05/13 04:25:43;;;;;;;15.27;4.85;;;12.60;99.90;;;;;;5013381;28;20075;-73
2022/05/13 04:28:08;;;;;;;23.60;5.47;;;12.50;99.90;;;;;;5018383;28;20421;-74
2022/05/13 04:30:34;;;;;;;21.52;5.32;;;12.60;99.90;;;;;;5018347;28;20079;-75
2022/05/13 04:33:00;;;;;;;17.38;4.88;;;12.60;99.90;;;;;;5015789;28;20036;-73
2022/05/13 04:35:25;;;;;;;23.00;5.38;;;12.70;99.90;;;;;;5014564;28;20038;-73
2022/05/13 04:37:51;;;;;;;25.17;5.40;;;12.70;99.90;;;;;;5013767;28;20364;-73
2022/05/13 04:40:16;;;;;;;21.50;5.32;;;12.80;99.90;;;;;;5013577;28;20026;-72
2022/05/13 04:42:50;;;;;;;17.05;5.20;;;12.80;99.90;;;;;;5013829;28;20030;-74
2022/05/13 04:45:24;;;;;;;16.40;4.70;;;12.90;99.90;;;;;;5014004;28;20061;-71
2022/05/13 04:48:16;;;;;;;15.55;5.13;;;12.90;99.90;;;;;;5013464;28;20061;-73
2022/05/13 04:50:57;;;;;;;25.00;4.93;;;12.90;99.90;;;;;;5014001;28;20108;-74
2022/05/13 04:53:26;;;;;;;14.57;4.85;;;12.90;99.90;;;;;;5012000;28;20075;-73
2022/05/13 04:55:53;;;;;;;18.60;5.35;;;12.80;99.90;;;;;;5012703;28;20026;-74
2022/05/13 04:58:21;;;;;;;17.40;4.90;;;12.80;99.90;;;;;;5013387;28;20061;-73
2022/05/13 05:00:49;;;;;;;12.80;4.85;;;12.80;99.90;;;;;;5014864;28;20029;-73
2022/05/13 05:03:20;;;;;;;16.02;4.57;;;12.90;99.90;;;;;;5022521;28;20084;-73
2022/05/13 05:08:13;;;;;;;19.80;6.15;;;12.90;99.90;;;;;;5052677;23;20505;-76
2022/05/13 05:10:40;;;;;;;18.33;4.95;;;12.90;99.90;;;;;;5034530;28;20192;-75
2022/05/13 05:13:07;;;;;;;18.63;5.60;;;12.80;99.90;;;;;;5034921;28;20021;-78
2022/05/13 05:15:34;;;;;;;15.88;4.85;;;12.90;99.90;;;;;;5036918;28;20025;-78
2022/05/13 05:17:59;;;;;;;15.68;4.50;;;12.90;99.90;;;;;;5036030;28;20529;-77
2022/05/13 05:20:25;;;;;;;21.95;4.45;;;12.90;99.90;;;;;;5034599;28;20064;-76
2022/05/13 05:22:50;;;;;;;15.60;4.95;;;12.90;99.90;;;;;;5035168;28;20567;-76
2022/05/13 05:25:19;;;;;;;23.65;4.57;;;12.90;99.90;;;;;;5034758;28;20033;-76
2022/05/13 05:27:44;;;;;;;16.63;4.25;;;12.90;99.90;;;;;;5034185;28;20044;-76
2022/05/13 05:30:11;;;;;;;23.15;5.38;;;12.90;99.90;;;;;;5036386;28;20026;-75
2022/05/13 05:32:40;;;;;;;18.23;4.72;;;12.90;99.90;;;;;;5035851;28;20021;-76
2022/05/13 05:35:09;;;;;;;15.52;4.35;;;12.90;99.90;;;;;;5047992;28;20026;-75
2022/05/13 05:37:34;;;;;;;19.38;4.97;;;13.00;99.90;;;;;;5047432;28;20029;-74
2022/05/13 05:40:00;;;;;;;18.02;5.13;;;13.00;99.90;;;;;;5046329;28;20049;-76
2022/05/13 05:42:26;;;;;;;13.85;4.75;;;13.00;99.90;;;;;;5047637;28;20103;-74
2022/05/13 05:44:51;;;;;;;13.38;4.05;;;13.00;99.90;;;;;;5053746;28;20072;-76
2022/05/13 05:47:21;;;;;;;19.88;4.68;;;13.10;99.90;;;;;;5052479;28;20041;-76
2022/05/13 05:49:47;;;;;;;16.23;4.35;;;13.10;99.90;;;;;;5045152;28;20474;-77
2022/05/13 05:52:12;;;;;;;19.15;4.72;;;13.00;99.90;;;;;;5036673;28;20075;-75
2022/05/13 05:57:23;;;;;;;21.23;4.80;;;13.10;99.90;;;;;;5033357;28;20032;-75
2022/05/13 05:59:49;;;;;;;17.08;4.38;;;13.20;99.90;;;;;;5033602;28;20478;-75
2022/05/13 06:02:15;;;;;;;23.33;6.25;;;13.20;99.90;;;;;;5033384;28;20084;-75
2022/05/13 06:04:40;;;;;;;18.95;4.47;;;13.30;99.90;;;;;;5031961;28;20037;-75
2022/05/13 06:07:08;;;;;;;14.98;4.75;;;13.40;99.90;;;;;;5032502;28;20033;-75
2022/05/13 06:09:34;;;;;;;15.02;4.45;;;13.40;99.90;;;;;;5032722;28;20021;-76
2022/05/13 06:12:00;;;;;;;11.77;4.38;;;13.40;99.90;;;;;;5034258;28;20029;-74
2022/05/13 06:14:27;;;;;;;14.35;4.28;;;13.40;99.90;;;;;;5033953;28;20029;-76
2022/05/13 06:16:53;;;;;;;20.23;4.72;;;13.40;99.90;;;;;;5037947;28;20021;-76
2022/05/13 06:19:19;;;;;;;14.73;4.38;;;13.30;99.90;;;;;;5038850;28;20033;-75
2022/05/13 06:21:44;;;;;;;17.50;5.43;;;13.30;99.90;;;;;;5033192;28;20022;-77
2022/05/13 06:24:10;;;;;;;17.77;5.40;;;13.30;99.90;;;;;;5042206;28;20022;-75
2022/05/13 06:26:36;;;;;;;14.63;5.13;;;13.30;99.90;;;;;;5044799;28;20080;-74
2022/05/13 06:29:04;;;;;;;13.85;4.63;;;13.30;99.90;;;;;;5042721;28;20029;-77
2022/05/13 06:31:29;;;;;;;21.88;4.78;;;13.30;99.90;;;;;;5043047;28;20033;-76
2022/05/13 06:33:55;;;;;;;19.90;4.78;;;13.40;99.90;;;;;;5048708;28;20022;-76
2022/05/13 06:36:21;;;;;;;14.40;4.32;;;13.40;99.90;;;;;;5037292;28;20053;-76
2022/05/13 06:38:47;;;;;;;16.75;4.60;;;13.40;99.90;;;;;;5035335;28;20101;-76
2022/05/13 06:41:13;;;;;;;19.58;5.35;;;13.40;99.90;;;;;;5036083;28;20029;-78
2022/05/13 06:43:38;;;;;;;20.30;4.47;;;13.40;99.90;;;;;;5039616;28;20056;-76
2022/05/13 06:46:05;;;;;;;16.85;4.40;;;13.40;99.90;;;;;;5040173;28;20026;-74
2022/05/13 06:48:30;;;;;;;19.70;4.80;;;13.40;99.90;;;;;;5036906;28;20029;-76
2022/05/13 06:50:56;;;;;;;16.35;4.97;;;13.50;99.90;;;;;;5033924;28;20018;-75
2022/05/13 06:53:22;;;;;;;17.25;5.18;;;13.60;99.90;;;;;;5033283;28;20018;-75
2022/05/13 06:55:49;;;;;;;22.23;5.43;;;13.60;99.90;;;;;;5033097;28;20102;-76
2022/05/13 06:58:16;;;;;;;13.43;4.55;;;13.50;99.90;;;;;;5033601;28;20028;-77
2022/05/13 07:00:43;;;;;;;23.05;5.05;;;13.50;99.90;;;;;;5034056;28;20378;-76
2022/05/13 07:03:16;;;;;;;18.48;5.63;;;13.60;99.90;;;;;;5036929;28;20031;-75
2022/05/13 07:05:42;;;;;;;19.23;5.35;;;13.40;99.90;;;;;;5040974;28;20032;-78
2022/05/13 07:08:08;;;;;;;21.73;5.47;;;13.50;99.90;;;;;;5041949;28;20026;-75
2022/05/13 07:10:34;;;;;;;19.25;4.55;;;13.50;99.90;;;;;;5038566;28;20025;-76
2022/05/13 07:13:04;;;;;;;21.48;5.15;;;13.50;99.90;;;;;;5036290;28;20018;-74
2022/05/13 07:15:30;;;;;;;14.88;4.70;;;13.60;99.90;;;;;;5035177;28;20047;-75
2022/05/13 07:17:56;;;;;;;17.90;5.97;;;13.60;99.90;;;;;;5038284;28;20021;-76
2022/05/13 07:20:23;;;;;;;15.82;4.75;;;13.60;99.90;;;;;;5041988;28;20435;-76
2022/05/13 07:22:48;;;;;;;26.98;6.93;;;13.70;99.90;;;;;;5051005;28;20426;-75
2022/05/13 07:25:15;;;;;;;15.80;4.80;;;13.70;99.90;;;;;;5037048;28;20032;-76
2022/05/13 07:27:40;;;;;;;23.92;5.70;;;13.80;99.90;;;;;;5034698;28;20071;-75
2022/05/13 07:30:07;;;;;;;17.55;4.85;;;14.00;99.90;;;;;;5047507;28;20486;-77
2022/05/13 07:32:33;;;;;;;22.42;4.88;;;14.10;99.90;;;;;;5037395;28;20018;-76
2022/05/13 07:34:58;;;;;;;18.33;5.35;;;14.10;99.90;;;;;;5039325;28;20029;-77
2022/05/13 07:37:24;;;;;;;25.50;4.47;;;14.20;99.90;;;;;;5036328;28;20029;-77
2022/05/13 07:42:33;;;;;;;26.77;5.82;;;14.20;99.90;;;;;;5037524;28;20087;-76
2022/05/13 07:44:59;;;;;;;26.45;5.65;;;14.30;99.90;;;;;;5036397;28;20041;-76
2022/05/13 07:47:25;;;;;;;17.55;4.88;;;14.30;99.90;;;;;;5036510;28;20083;-76
2022/05/13 07:49:50;;;;;;;19.52;5.72;;;14.40;99.90;;;;;;5036825;28;20120;-75
2022/05/13 07:52:16;;;;;;;20.63;5.15;;;14.40;99.90;;;;;;5036679;28;20029;-77
2022/05/13 07:54:41;;;;;;;24.13;5.10;;;14.30;99.90;;;;;;5039850;28;20218;-75
2022/05/13 07:57:07;;;;;;;23.80;5.32;;;14.40;99.90;;;;;;5056324;28;20014;-78
2022/05/13 08:00:24;;;;;;;19.23;5.35;;;14.30;99.90;;;;;;5057399;28;20033;-75
2022/05/13 08:02:19;;;;;;;17.17;5.15;;;14.30;99.90;;;;;;5058471;28;20021;-75
2022/05/13 08:04:44;;;;;;;23.52;5.90;;;14.40;99.90;;;;;;5058155;28;20010;-76
2022/05/13 08:07:10;;;;;;;32.67;6.15;;;14.50;99.90;;;;;;5046275;28;20126;-76
2022/05/13 08:09:36;;;;;;;18.33;4.88;;;14.60;99.90;;;;;;5038095;28;20032;-74
2022/05/13 08:12:01;;;;;;;25.05;6.15;;;14.60;99.90;;;;;;5034571;28;20386;-75
2022/05/13 08:14:27;;;;;;;27.38;5.38;;;14.60;99.90;;;;;;5036063;28;20509;-76
2022/05/13 08:16:52;;;;;;;22.35;5.63;;;14.70;99.90;;;;;;5035002;28;20029;-75
2022/05/13 08:19:18;;;;;;;26.50;5.50;;;14.60;99.90;;;;;;5035427;28;20099;-76
2022/05/13 08:21:43;;;;;;;26.45;5.63;;;14.60;99.90;;;;;;5035309;28;20050;-76
2022/05/13 08:24:09;;;;;;;28.40;6.15;;;14.60;99.90;;;;;;5036027;28;20394;-75
2022/05/13 08:26:34;;;;;;;21.67;5.00;;;14.60;99.90;;;;;;5035032;28;20044;-76
2022/05/13 08:29:00;;;;;;;29.70;6.03;;;14.60;99.90;;;;;;5035115;28;20398;-75
2022/05/13 08:31:26;;;;;;;24.25;5.63;;;14.70;99.90;;;;;;5034642;28;20030;-74
2022/05/13 08:33:51;;;;;;;22.13;6.25;;;14.70;99.90;;;;;;5035916;28;20044;-74
2022/05/13 08:36:17;;;;;;;29.73;6.65;;;14.70;99.90;;;;;;5033764;28;20044;-74
2022/05/13 08:38:44;;;;;;;21.42;5.15;;;14.80;99.90;;;;;;5033728;28;20030;-74
2022/05/13 08:41:10;;;;;;;23.48;5.47;;;14.90;99.90;;;;;;5034180;28;20049;-75
2022/05/13 08:44:04;;;;;;;23.17;6.32;;;15.10;99.90;;;;;;5032778;28;20087;-75
2022/05/13 08:46:30;;;;;;;22.30;5.97;;;15.20;99.90;;;;;;5033374;28;20069;-74
2022/05/13 08:49:01;;;;;;;26.02;5.72;;;15.20;99.90;;;;;;5033990;28;20060;-74
2022/05/13 08:51:52;;;;;;;27.20;6.60;;;15.30;99.90;;;;;;5034014;28;20436;-74
2022/05/13 08:54:22;;;;;;;26.35;6.07;;;15.30;99.90;;;;;;5033844;28;20020;-74
2022/05/13 08:56:50;;;;;;;18.45;5.28;;;15.40;99.90;;;;;;5032083;28;20486;-75
2022/05/13 08:59:25;;;;;;;26.67;6.18;;;15.50;99.90;;;;;;5033984;28;20111;-74
2022/05/13 09:01:55;;;;;;;;;;;15.50;99.90;;;;;;5034116;28;20026;-75
2022/05/13 09:04:31;;;;;;;27.08;5.97;;;15.60;99.90;;;;;;5033755;28;19905;-74
2022/05/13 09:07:11;;;;;;;27.60;6.68;;;15.60;99.90;;;;;;5033805;28;20091;-74
2022/05/13 09:09:39;;;;;;;28.65;5.72;;;15.80;99.90;;;;;;5037443;28;20056;-73
2022/05/13 09:12:13;;;;;;;34.50;6.25;;;15.80;99.90;;;;;;5036452;28;20017;-75
2022/05/13 09:14:43;;;;;;;34.63;6.20;;;15.90;99.90;;;;;;5054056;28;20117;-75
2022/05/13 09:17:15;;;;;;;26.48;6.00;;;16.00;99.90;;;;;;5055750;28;20035;-74
2022/05/13 09:19:58;;;;;;;33.00;6.72;;;16.20;99.90;;;;;;5054883;28;20026;-75
2022/05/13 09:22:31;;;;;;;28.30;6.65;;;16.50;99.90;;;;;;5052758;28;20083;-75
2022/05/13 09:24:56;;;;;;;29.20;6.28;;;16.70;99.90;;;;;;5052262;28;20032;-75
2022/05/13 09:27:22;;;;;;;21.27;5.57;;;16.80;99.90;;;;;;5051313;28;20033;-76
2022/05/13 09:29:47;;;;;;;30.23;6.43;;;16.90;99.90;;;;;;5052393;28;20092;-74
2022/05/13 09:32:21;;;;;;;30.58;8.20;;;16.90;99.90;;;;;;5040339;28;20028;-75
2022/05/13 09:35:00;;;;;;;20.40;5.82;;;17.00;99.90;;;;;;5044870;28;20025;-75
2022/05/13 09:37:34;;;;;;;27.20;5.93;;;17.10;99.90;;;;;;5047148;28;20155;-74
2022/05/13 09:40:09;;;;;;;24.75;6.03;;;17.00;99.90;;;;;;5047421;28;20044;-74
2022/05/13 09:42:36;;;;;;;26.05;5.85;;;17.00;99.90;;;;;;5042691;28;20104;-75
2022/05/13 09:45:33;;;;;;;27.13;6.28;;;16.90;99.90;;;;;;5036434;28;20026;-75
2022/05/13 09:48:16;;;;;;;24.75;5.80;;;16.90;99.90;;;;;;5025538;28;20121;-73
2022/05/13 09:50:45;;;;;;;31.15;7.15;;;16.90;99.90;;;;;;5033843;28;20059;-76
2022/05/13 09:53:20;;;;;;;33.50;6.65;;;17.00;99.90;;;;;;5032181;28;20028;-75
2022/05/13 09:55:46;;;;;;;;;;;17.00;99.90;;;;;;5033405;28;20022;-75
2022/05/13 09:58:23;;;;;;;24.67;6.57;;;17.00;99.90;;;;;;5033489;28;19905;-75
2022/05/13 10:00:53;;;;;;;33.35;6.53;;;16.90;99.90;;;;;;5035509;28;20026;-75
2022/05/13 10:03:18;;;;;;;24.08;5.72;;;16.80;99.90;;;;;;5033895;28;20032;-75
2022/05/13 10:05:51;;;;;;;27.88;6.28;;;16.80;99.90;;;;;;5035420;28;20029;-74
2022/05/13 10:08:21;;;;;;;19.58;6.07;;;16.70;99.90;;;;;;5035595;28;20073;-74
2022/05/13 10:14:05;;;;;;;20.80;5.10;;;17.00;99.90;;;;;;5038325;28;20036;-75
2022/05/13 10:16:36;;;;;;;22.75;5.32;;;17.20;99.90;;;;;;5037177;28;20167;-74
2022/05/13 10:19:18;;;;;;;21.25;5.80;;;17.20;99.90;;;;;;5036184;28;20024;-76
2022/05/13 10:21:54;;;;;;;27.92;6.80;;;17.00;99.90;;;;;;5034080;28;20492;-76
2022/05/13 10:24:47;;;;;;;38.30;7.00;;;16.70;99.90;;;;;;5032107;28;20049;-75
2022/05/13 10:27:24;;;;;;;23.00;5.93;;;16.50;99.90;;;;;;5033485;28;20022;-76
2022/05/13 10:29:53;;;;;;;25.05;7.13;;;16.30;99.90;;;;;;5036336;28;20030;-76
2022/05/13 10:32:52;;;;;;;29.25;7.25;;;16.10;99.90;;;;;;5036841;28;20041;-75
2022/05/13 10:35:22;;;;;;;27.20;7.97;;;15.90;99.90;;;;;;5006894;28;20037;-75
2022/05/13 10:38:09;;;;;;;30.20;8.18;;;15.80;99.90;;;;;;5042275;28;20030;-76
2022/05/13 10:40:40;;;;;;;27.23;9.13;;;15.90;99.90;;;;;;5045454;28;20018;-75
2022/05/13 10:43:30;;;;;;;28.05;7.25;;;16.10;99.90;;;;;;5042882;28;20463;-76
2022/05/13 10:46:25;;;;;;;19.08;5.75;;;16.20;99.90;;;;;;5039484;28;20396;-76
2022/05/13 10:48:52;;;;;;;20.23;4.32;;;16.30;99.90;;;;;;5040133;28;20029;-76
2022/05/13 10:51:23;;;;;;;23.05;6.03;;;16.40;99.90;;;;;;5041687;28;20084;-76
2022/05/13 10:54:11;;;;;;;19.30;4.75;;;16.40;99.90;;;;;;5042357;28;20022;-75
2022/05/13 10:56:48;;;;;;;25.48;9.63;;;16.40;99.90;;;;;;5035964;28;20026;-76
2022/05/13 10:59:33;;;;;;;15.35;6.32;;;16.30;99.90;;;;;;5037307;28;20033;-76
2022/05/13 11:02:01;;;;;;;14.35;4.95;;;16.30;99.90;;;;;;5036581;28;20076;-75
2022/05/13 11:05:06;;;;;;;16.77;4.25;;;16.30;99.90;;;;;;5036579;28;20025;-76
2022/05/13 11:07:55;;;;;;;22.10;7.05;;;16.40;99.90;;;;;;5043376;23;20081;-74
2022/05/13 11:10:30;;;;;;;22.25;7.15;;;16.40;99.90;;;;;;5034736;28;20025;-73
2022/05/13 11:13:34;;;;;;;23.98;8.07;;;16.40;99.90;;;;;;5034838;28;20120;-73
2022/05/13 11:16:12;;;;;;;20.42;4.00;;;16.80;99.90;;;;;;5035072;28;20017;-75
2022/05/13 11:18:40;;;;;;;11.98;3.42;;;17.10;99.90;;;;;;5015346;28;20093;-74
2022/05/13 11:21:24;;;;;;;15.15;4.30;;;17.30;99.90;;;;;;5015640;28;20087;-75
2022/05/13 11:27:45;;;;;;;16.10;5.25;;;17.30;99.90;;;;;;4991185;28;20602;-73
2022/05/13 11:30:21;;;;;;;14.10;4.93;;;17.10;99.90;;;;;;5021399;28;20049;-73
2022/05/13 11:33:09;;;;;;;17.00;5.80;;;17.30;99.90;;;;;;5018991;28;20061;-75
2022/05/13 11:36:14;;;;;;;12.57;3.45;;;17.60;99.90;;;;;;5014675;28;20036;-73
2022/05/13 11:38:51;;;;;;;14.88;3.05;;;18.00;99.90;;;;;;5014891;28;20045;-74
2022/05/13 11:41:22;;;;;;;13.32;2.78;;;18.30;99.90;;;;;;5019645;28;20022;-73
2022/05/13 11:43:53;;;;;;;10.90;2.95;;;18.70;99.90;;;;;;5014450;28;20433;-74
2022/05/13 11:46:25;;;;;;;14.05;3.38;;;18.70;99.90;;;;;;5013101;28;20034;-73
2022/05/13 11:48:55;;;;;;;16.50;3.53;;;18.50;99.90;;;;;;5013716;28;20479;-74
2022/05/13 11:51:26;;;;;;;29.80;10.35;;;18.30;99.90;;;;;;5021479;28;20030;-74
2022/05/13 11:54:16;;;;;;;26.42;7.40;;;18.20;99.90;;;;;;5014567;28;20078;-73
2022/05/13 11:56:43;;;;;;;22.05;4.78;;;18.20;99.90;;;;;;5014479;28;20036;-72
2022/05/13 11:59:27;;;;;;;16.33;4.05;;;18.30;99.90;;;;;;5015282;28;20041;-74
2022/05/13 12:02:14;;;;;;;11.33;3.73;;;18.60;99.90;;;;;;5015528;28;20103;-75
2022/05/13 12:05:10;;;;;;;19.63;8.55;;;18.90;99.90;;;;;;5013574;28;20037;-75
2022/05/13 12:07:53;;;;;;;17.10;6.10;;;19.20;99.90;;;;;;5013887;28;20022;-73
2022/05/13 12:10:30;;;;;;;13.45;4.38;;;19.40;99.90;;;;;;5014475;28;20105;-75
2022/05/13 12:13:14;;;;;;;13.40;3.53;;;19.40;99.90;;;;;;5014460;28;20071;-74
2022/05/13 12:16:01;;;;;;;10.60;3.42;;;19.30;99.90;;;;;;5012827;28;20029;-73
2022/05/13 12:18:45;;;;;;;18.58;5.10;;;19.00;99.90;;;;;;5014056;28;20022;-73
2022/05/13 12:21:22;;;;;;;14.27;3.97;;;18.80;99.90;;;;;;5013934;28;20044;-72
2022/05/13 12:24:02;;;;;;;15.68;4.38;;;18.70;99.90;;;;;;5013814;28;20109;-73
2022/05/13 12:26:52;;;;;;;10.52;3.15;;;18.60;99.90;;;;;;5013677;28;20430;-75
2022/05/13 12:29:22;;;;;;;15.95;7.80;;;18.60;99.90;;;;;;5013902;28;20053;-73
2022/05/13 12:31:54;;;;;;;15.45;4.65;;;18.50;99.90;;;;;;5013467;28;20026;-71
2022/05/13 12:37:33;;;;;;;14.35;2.97;;;18.50;99.90;;;;;;5013510;28;20052;-71
2022/05/13 12:40:03;;;;;;;20.83;3.20;;;18.30;99.90;;;;;;5014035;28;20022;-72
2022/05/13 12:42:47;;;;;;;15.80;2.78;;;18.10;99.90;;;;;;5013935;28;20109;-72
2022/05/13 12:45:21;;;;;;;19.40;3.20;;;18.00;99.90;;;;;;5013359;28;20137;-72
2022/05/13 12:48:04;;;;;;;12.38;3.35;;;17.90;99.90;;;;;;5013463;28;20026;-73
2022/05/13 12:50:40;;;;;;;16.98;3.45;;;17.70;99.90;;;;;;5012976;28;20437;-75
2022/05/13 12:53:27;;;;;;;18.55;5.18;;;17.40;99.90;;;;;;5013177;28;20022;-71
2022/05/13 12:55:57;;;;;;;15.45;3.15;;;17.30;99.90;;;;;;5012959;28;20022;-72
2022/05/13 12:58:24;;;;;;;17.42;3.08;;;17.20;99.90;;;;;;5012961;28;20022;-73
2022/05/13 13:00:52;;;;;;;14.60;2.90;;;17.30;99.90;;;;;;5013474;28;20062;-73
2022/05/13 13:03:20;;;;;;;10.60;3.10;;;17.30;99.90;;;;;;5013497;28;20457;-74
2022/05/13 13:06:16;;;;;;;15.20;2.60;;;17.10;99.90;;;;;;5012901;28;20033;-73
2022/05/13 13:08:43;;;;;;;15.98;2.45;;;17.10;99.90;;;;;;5012979;28;20479;-74
2022/05/13 13:11:33;;;;;;;20.58;4.88;;;16.90;99.90;;;;;;5013213;28;20022;-74
2022/05/13 13:13:58;;;;;;;12.40;2.72;;;16.90;99.90;;;;;;5013007;28;20033;-74
2022/05/13 13:16:32;;;;;;;11.60;2.63;;;17.00;99.90;;;;;;5013725;28;20022;-72
2022/05/13 13:19:28;;;;;;;20.00;3.25;;;17.00;99.90;;;;;;5013407;28;20068;-72
2022/05/13 13:22:08;;;;;;;14.63;3.30;;;17.00;99.90;;;;;;5000725;28;20393;-72
2022/05/13 13:24:36;;;;;;;11.65;2.90;;;17.00;99.90;;;;;;5012987;28;20434;-73
2022/05/13 13:27:05;;;;;;;11.90;2.72;;;17.10;99.90;;;;;;5012808;28;20036;-74